createdAt,value
2023-02-14T00:00:55.662Z,38.88
2023-02-14T00:03:22.278Z,34.20
2023-02-14T00:05:49.533Z,33.38
2023-02-14T00:08:16.485Z,44.17
2023-02-14T00:10:43.030Z,37.65
2023-02-14T00:13:09.679Z,36.85
2023-02-14T00:15:36.191Z,35.78
2023-02-14T00:18:03.573Z,31.35
2023-02-14T00:20:30.256Z,38.90
2023-02-14T00:22:56.855Z,34.55
2023-02-14T00:25:23.532Z,37.72
2023-02-14T00:27:50.911Z,31.38
2023-02-14T00:30:17.488Z,38.45
2023-02-14T00:32:44.171Z,34.30
2023-02-14T00:35:11.547Z,32.40
2023-02-14T00:37:38.467Z,32.25
2023-02-14T00:40:07.471Z,31.67
2023-02-14T00:42:34.348Z,38.72
2023-02-14T00:45:01.065Z,31.42
2023-02-14T00:47:27.646Z,31.10
2023-02-14T00:49:54.326Z,40.42
2023-02-14T00:52:20.873Z,34.28
2023-02-14T00:54:47.425Z,35.95
2023-02-14T00:57:14.183Z,39.15
2023-02-14T00:59:40.844Z,33.65
2023-02-14T01:02:07.457Z,35.20
2023-02-14T01:04:34.188Z,37.88
2023-02-14T01:07:00.737Z,35.42
2023-02-14T01:09:27.346Z,37.15
2023-02-14T01:11:54.010Z,36.53
2023-02-14T01:14:20.587Z,38.80
2023-02-14T01:16:47.150Z,38.75
2023-02-14T01:19:14.204Z,45.40
2023-02-14T01:21:41.815Z,45.40
2023-02-14T01:24:09.530Z,38.92
2023-02-14T01:26:36.665Z,36.42
2023-02-14T01:29:04.188Z,37.83
2023-02-14T01:31:32.648Z,38.17
2023-02-14T01:33:59.913Z,42.28
2023-02-14T01:36:30.069Z,34.20
2023-02-14T01:38:59.879Z,40.08
2023-02-14T01:41:29.071Z,35.60
2023-02-14T01:46:35.392Z,42.97
2023-02-14T01:51:43.198Z,44.55
2023-02-14T01:54:11.426Z,42.08
2023-02-14T01:56:41.720Z,39.88
2023-02-14T01:59:13.761Z,43.65
2023-02-14T02:01:41.575Z,41.45
2023-02-14T02:04:13.292Z,41.85
2023-02-14T02:06:43.458Z,42.13
2023-02-14T02:09:16.575Z,47.95
2023-02-14T02:11:43.493Z,40.83
2023-02-14T02:14:15.952Z,39.80
2023-02-14T02:20:00.487Z,44.65
2023-02-14T02:28:56.311Z,42.30
2023-02-14T02:31:43.534Z,40.47
2023-02-14T02:34:50.248Z,38.80
2023-02-14T02:51:13.744Z,43.13
2023-02-14T02:53:49.680Z,40.33
2023-02-14T02:59:18.840Z,61.47
2023-02-14T03:01:58.042Z,43.67
2023-02-14T03:04:46.758Z,40.75
2023-02-14T03:07:33.567Z,42.00
2023-02-14T03:10:02.242Z,44.17
2023-02-14T03:12:47.232Z,41.22
2023-02-14T03:21:00.758Z,45.78
2023-02-14T03:23:36.287Z,53.90
2023-02-14T03:29:06.126Z,43.22
2023-02-14T03:34:24.185Z,46.83
2023-02-14T03:42:11.694Z,50.35
2023-02-14T03:44:40.710Z,45.25
2023-02-14T03:47:12.204Z,47.88
2023-02-14T03:49:45.469Z,49.17
2023-02-14T03:52:14.485Z,48.10
2023-02-14T03:54:42.107Z,44.05
2023-02-14T03:57:24.607Z,47.83
2023-02-14T03:59:51.286Z,43.53
2023-02-14T04:02:25.137Z,44.58
2023-02-14T04:04:54.338Z,36.83
2023-02-14T04:07:23.226Z,45.05
2023-02-14T04:09:50.446Z,45.53
2023-02-14T04:12:26.540Z,53.15
2023-02-14T04:14:59.029Z,42.30
2023-02-14T04:17:45.458Z,48.63
2023-02-14T04:20:12.234Z,44.63
2023-02-14T04:22:38.766Z,49.42
2023-02-14T04:25:05.625Z,45.78
2023-02-14T04:27:32.175Z,44.97
2023-02-14T04:29:58.860Z,39.75
2023-02-14T04:32:25.515Z,48.75
2023-02-14T04:34:52.115Z,46.65
2023-02-14T04:37:19.715Z,41.22
2023-02-14T04:39:46.366Z,43.75
2023-02-14T04:42:14.296Z,51.95
2023-02-14T04:44:40.887Z,41.05
2023-02-14T04:47:08.377Z,51.90
2023-02-14T04:49:35.646Z,54.10
2023-02-14T04:52:03.005Z,53.70
2023-02-14T04:54:29.804Z,50.80
2023-02-14T04:56:56.392Z,49.42
2023-02-14T04:59:24.825Z,46.45
2023-02-14T05:01:52.000Z,46.75
2023-02-14T05:04:18.651Z,54.55
2023-02-14T05:06:45.210Z,48.10
2023-02-14T05:09:11.869Z,53.67
2023-02-14T05:11:38.533Z,48.40
2023-02-14T05:14:05.130Z,62.72
2023-02-14T05:16:31.794Z,55.75
2023-02-14T05:18:58.401Z,54.28
2023-02-14T05:21:25.054Z,50.58
2023-02-14T05:23:51.586Z,43.60
2023-02-14T05:26:18.214Z,56.80
2023-02-14T05:28:44.757Z,40.13
2023-02-14T05:31:11.591Z,42.35
2023-02-14T05:33:38.271Z,45.45
2023-02-14T05:36:05.303Z,52.47
2023-02-14T05:38:33.550Z,49.40
2023-02-14T05:41:00.343Z,34.55
2023-02-14T05:43:27.103Z,52.17
2023-02-14T05:45:54.689Z,49.03
2023-02-14T05:48:21.505Z,45.67
2023-02-14T05:50:48.279Z,44.80
2023-02-14T05:53:15.586Z,31.45
2023-02-14T05:55:42.167Z,38.92
2023-02-14T05:58:08.711Z,37.70
2023-02-14T06:00:35.286Z,44.28
2023-02-14T06:03:01.861Z,63.13
2023-02-14T06:05:28.541Z,55.88
2023-02-14T06:07:55.085Z,57.65
2023-02-14T06:10:23.696Z,51.88
2023-02-14T06:12:52.188Z,53.15
2023-02-14T06:15:19.234Z,53.08
2023-02-14T06:17:47.963Z,64.47
2023-02-14T06:20:14.519Z,50.15
2023-02-14T06:22:41.049Z,56.47
2023-02-14T06:25:07.815Z,37.72
2023-02-14T06:27:34.645Z,46.40
2023-02-14T06:30:01.253Z,42.22
2023-02-14T06:32:27.931Z,55.88
2023-02-14T06:34:54.476Z,97.47
2023-02-14T06:37:21.154Z,59.88
2023-02-14T06:39:47.729Z,76.07
2023-02-14T06:42:14.335Z,61.42
2023-02-14T06:44:40.924Z,43.13
2023-02-14T06:47:08.594Z,70.72
2023-02-14T06:49:35.199Z,64.25
2023-02-14T06:52:01.949Z,64.78
2023-02-14T06:54:28.481Z,62.70
2023-02-14T06:56:55.106Z,40.33
2023-02-14T06:59:21.800Z,41.88
2023-02-14T07:01:48.436Z,41.70
2023-02-14T07:04:14.991Z,45.50
2023-02-14T07:06:41.658Z,42.80
2023-02-14T07:09:08.322Z,38.92
2023-02-14T07:11:34.913Z,87.05
2023-02-14T07:14:01.534Z,60.75
2023-02-14T07:16:28.072Z,69.97
2023-02-14T07:18:54.661Z,73.72
2023-02-14T07:21:21.191Z,65.07
2023-02-14T07:23:50.005Z,48.15
2023-02-14T07:26:18.263Z,49.50
2023-02-14T07:28:45.696Z,43.40
2023-02-14T07:31:12.645Z,67.35
2023-02-14T07:33:39.266Z,61.47
2023-02-14T07:36:08.139Z,33.53
2023-02-14T07:38:35.234Z,46.30
2023-02-14T07:41:02.332Z,83.50
2023-02-14T07:43:29.060Z,59.97
2023-02-14T07:45:55.742Z,53.47
2023-02-14T07:48:22.564Z,51.33
2023-02-14T07:50:49.153Z,42.25
2023-02-14T07:53:15.710Z,53.83
2023-02-14T07:55:42.337Z,70.15
2023-02-14T07:58:09.378Z,51.30
2023-02-14T08:00:36.014Z,63.10
2023-02-14T08:03:02.567Z,46.65
2023-02-14T08:05:29.232Z,51.65
2023-02-14T08:07:55.767Z,71.32
2023-02-14T08:10:22.290Z,88.05
2023-02-14T08:13:05.048Z,73.20
2023-02-14T08:15:54.289Z,111.05
2023-02-14T08:18:23.211Z,57.95
2023-02-14T08:20:50.099Z,57.00
2023-02-14T08:23:18.056Z,70.18
2023-02-14T08:25:44.760Z,98.22
2023-02-14T08:28:13.282Z,75.75
2023-02-14T08:30:39.832Z,67.90
2023-02-14T08:33:07.097Z,43.83
2023-02-14T08:35:34.018Z,71.50
2023-02-14T08:38:00.812Z,93.53
2023-02-14T08:40:27.888Z,44.58
2023-02-14T08:42:54.549Z,44.80
2023-02-14T08:45:21.267Z,76.65
2023-02-14T08:47:47.886Z,60.25
2023-02-14T08:50:17.011Z,38.75
2023-02-14T08:52:44.348Z,70.65
2023-02-14T08:55:13.224Z,45.40
2023-02-14T08:57:40.458Z,47.53
2023-02-14T09:00:08.608Z,53.42
2023-02-14T09:02:35.848Z,51.75
2023-02-14T09:05:02.510Z,64.00
2023-02-14T09:07:29.192Z,58.40
2023-02-14T09:09:55.781Z,46.53
2023-02-14T09:12:22.341Z,56.83
2023-02-14T09:14:49.541Z,57.42
2023-02-14T09:17:16.507Z,85.50
2023-02-14T09:19:43.072Z,84.93
2023-02-14T09:22:11.452Z,60.17
2023-02-14T09:24:39.594Z,52.22
2023-02-14T09:27:07.887Z,77.30
2023-02-14T09:29:34.722Z,63.80
2023-02-14T09:32:02.754Z,62.28
2023-02-14T09:34:30.101Z,51.13
2023-02-14T09:36:56.953Z,89.10
2023-02-14T09:39:23.889Z,56.60
2023-02-14T09:42:03.157Z,76.47
2023-02-14T09:44:37.346Z,65.80
2023-02-14T09:47:21.282Z,55.78
2023-02-14T09:49:50.257Z,36.75
2023-02-14T09:52:19.803Z,57.08
2023-02-14T09:54:51.509Z,44.97
2023-02-14T10:02:46.921Z,40.15
2023-02-14T10:05:32.559Z,35.53
2023-02-14T10:10:46.589Z,44.05
2023-02-14T10:13:19.690Z,39.70
2023-02-14T10:15:50.869Z,41.20
2023-02-14T10:18:42.681Z,37.40
2023-02-14T10:21:16.173Z,36.40
2023-02-14T10:23:49.141Z,34.00
2023-02-14T10:26:24.928Z,44.53
2023-02-14T10:28:51.945Z,38.38
2023-02-14T10:34:04.938Z,40.67
2023-02-14T10:41:53.278Z,47.95
2023-02-14T10:49:54.627Z,44.60
2023-02-14T10:55:33.012Z,47.55
2023-02-14T10:58:03.072Z,42.40
2023-02-14T11:00:35.270Z,38.90
2023-02-14T11:03:06.225Z,49.78
2023-02-14T11:05:41.331Z,36.72
2023-02-14T11:10:51.878Z,44.17
2023-02-14T11:13:28.781Z,48.55
2023-02-14T11:15:59.633Z,56.45
2023-02-14T11:18:33.122Z,51.03
2023-02-14T11:21:10.771Z,49.63
2023-02-14T11:23:42.709Z,45.67
2023-02-14T11:26:17.437Z,69.90
2023-02-14T11:29:03.998Z,46.22
2023-02-14T11:31:35.298Z,48.08
2023-02-14T11:34:05.355Z,42.92
2023-02-14T11:36:32.727Z,36.67
2023-02-14T11:39:08.184Z,41.38
2023-02-14T11:41:51.191Z,42.78
2023-02-14T11:44:22.838Z,49.40
2023-02-14T11:46:53.382Z,38.65
2023-02-14T11:52:17.451Z,47.28
2023-02-14T11:54:49.519Z,54.42
2023-02-14T11:57:28.396Z,57.72
2023-02-14T11:59:57.170Z,44.42
2023-02-14T12:05:17.994Z,45.30
2023-02-14T12:07:46.419Z,33.33
2023-02-14T12:31:41.614Z,33.78
2023-02-14T12:34:12.127Z,30.35
2023-02-14T12:48:16.686Z,29.25
2023-02-14T13:04:40.902Z,30.77
2023-02-14T13:09:59.852Z,28.20
2023-02-14T13:17:52.435Z,26.67
2023-02-14T13:23:13.612Z,24.55
2023-02-14T13:25:49.849Z,28.98
2023-02-14T13:28:18.083Z,28.48
2023-02-14T13:30:44.742Z,26.42
2023-02-14T13:33:27.258Z,27.73
2023-02-14T13:36:00.107Z,29.17
2023-02-14T13:38:28.350Z,25.02
2023-02-14T13:40:57.726Z,26.65
2023-02-14T13:43:46.113Z,29.60
2023-02-14T13:46:15.056Z,28.42
2023-02-14T13:48:43.258Z,32.38
2023-02-14T13:51:10.719Z,31.25
2023-02-14T13:59:01.513Z,28.05
2023-02-14T14:01:50.246Z,31.13
2023-02-14T14:04:37.500Z,31.42
2023-02-14T14:12:38.179Z,34.33
2023-02-14T14:23:28.995Z,30.75
2023-02-14T14:25:55.606Z,31.20
2023-02-14T14:28:25.978Z,28.15
2023-02-14T14:30:52.849Z,30.40
2023-02-14T14:36:08.326Z,28.02
2023-02-14T14:38:47.313Z,25.92
2023-02-14T14:41:14.005Z,27.02
2023-02-14T14:43:41.486Z,27.05
2023-02-14T14:46:12.270Z,22.30
2023-02-14T14:48:50.184Z,25.85
2023-02-14T14:51:31.092Z,24.25
2023-02-14T14:54:01.338Z,22.27
2023-02-14T14:56:31.799Z,22.70
2023-02-14T14:59:15.366Z,20.58
2023-02-14T15:01:46.880Z,22.67
2023-02-14T15:06:51.835Z,24.83
2023-02-14T15:09:24.297Z,24.42
2023-02-14T15:12:13.231Z,26.70
2023-02-14T15:14:43.795Z,27.15
2023-02-14T15:19:54.677Z,21.23
2023-02-14T15:22:41.518Z,21.80
2023-02-14T15:25:12.863Z,18.73
2023-02-14T15:27:41.496Z,20.95
2023-02-14T15:32:57.865Z,23.67
2023-02-14T15:35:27.795Z,21.73
2023-02-14T15:37:57.122Z,22.55
2023-02-14T15:40:28.114Z,19.85
2023-02-14T15:42:57.449Z,25.95
2023-02-14T15:48:11.537Z,23.05
2023-02-14T15:50:46.786Z,24.92
2023-02-14T15:56:04.836Z,29.58
2023-02-14T15:58:35.483Z,24.33
2023-02-14T16:01:03.173Z,24.45
2023-02-14T16:03:33.973Z,23.42
2023-02-14T16:06:00.808Z,23.92
2023-02-14T16:11:15.865Z,21.77
2023-02-14T16:13:45.227Z,24.27
2023-02-14T16:16:14.112Z,23.63
2023-02-14T16:24:12.653Z,22.80
2023-02-14T16:29:17.093Z,21.98
2023-02-14T16:32:14.177Z,21.80
2023-02-14T16:34:34.371Z,22.17
2023-02-14T16:37:08.559Z,21.45
2023-02-14T16:39:35.674Z,21.90
2023-02-14T16:42:03.441Z,21.52
2023-02-14T16:44:30.030Z,23.08
2023-02-14T16:46:56.543Z,23.93
2023-02-14T16:49:23.849Z,20.63
2023-02-14T16:51:52.047Z,20.65
2023-02-14T16:54:20.609Z,22.23
2023-02-14T16:56:55.853Z,24.25
2023-02-14T16:59:23.061Z,26.25
2023-02-14T17:01:49.999Z,22.08
2023-02-14T17:04:16.595Z,22.20
2023-02-14T17:06:48.258Z,24.85
2023-02-14T17:09:17.806Z,23.67
2023-02-14T17:11:48.922Z,20.80
2023-02-14T17:14:19.681Z,22.23
2023-02-14T17:16:46.298Z,24.73
2023-02-14T17:19:13.710Z,21.20
2023-02-14T17:21:41.088Z,23.58
2023-02-14T17:24:07.642Z,25.08
2023-02-14T17:26:34.260Z,24.30
2023-02-14T17:29:00.948Z,26.23
2023-02-14T17:31:28.635Z,22.45
2023-02-14T17:33:55.443Z,24.63
2023-02-14T17:36:24.146Z,24.30
2023-02-14T17:38:53.338Z,23.58
2023-02-14T17:41:22.703Z,24.27
2023-02-14T17:43:50.402Z,24.20
2023-02-14T17:46:18.977Z,24.60
2023-02-14T17:48:46.334Z,21.30
2023-02-14T17:51:14.411Z,25.58
2023-02-14T17:53:41.759Z,25.75
2023-02-14T17:56:12.324Z,25.20
2023-02-14T17:58:39.165Z,22.52
2023-02-14T18:01:08.950Z,26.67
2023-02-14T18:03:36.165Z,28.73
2023-02-14T18:06:03.423Z,26.05
2023-02-14T18:08:32.186Z,26.17
2023-02-14T18:10:59.761Z,26.02
2023-02-14T18:13:26.720Z,24.27
2023-02-14T18:15:53.569Z,30.65
2023-02-14T18:18:20.500Z,24.80
2023-02-14T18:20:55.207Z,27.63
2023-02-14T18:23:22.634Z,25.58
2023-02-14T18:25:55.030Z,28.20
2023-02-14T18:28:23.032Z,27.83
2023-02-14T18:30:49.704Z,25.80
2023-02-14T18:33:17.805Z,23.65
2023-02-14T18:35:45.154Z,23.65
2023-02-14T18:38:12.066Z,25.15
2023-02-14T18:40:39.091Z,29.27
2023-02-14T18:43:05.867Z,24.52
2023-02-14T18:45:37.993Z,29.42
2023-02-14T18:48:05.845Z,30.70
2023-02-14T18:50:34.716Z,26.23
2023-02-14T18:53:01.350Z,31.15
2023-02-14T18:55:28.833Z,31.15
2023-02-14T18:57:55.441Z,29.38
2023-02-14T19:00:22.449Z,30.88
2023-02-14T19:02:49.030Z,27.27
2023-02-14T19:05:15.708Z,31.85
2023-02-14T19:07:42.394Z,30.88
2023-02-14T19:10:09.748Z,28.00
2023-02-14T19:12:36.361Z,29.85
2023-02-14T19:15:03.554Z,31.75
2023-02-14T19:17:30.233Z,27.83
2023-02-14T19:19:57.323Z,29.60
2023-02-14T19:22:24.084Z,28.33
2023-02-14T19:24:53.787Z,27.95
2023-02-14T19:27:21.604Z,27.15
2023-02-14T19:29:48.284Z,30.17
2023-02-14T19:32:14.963Z,28.58
2023-02-14T19:34:41.555Z,26.48
2023-02-14T19:37:08.074Z,28.50
2023-02-14T19:39:34.667Z,28.98
2023-02-14T19:42:01.273Z,27.65
2023-02-14T19:44:29.387Z,31.42
2023-02-14T19:46:56.676Z,26.10
2023-02-14T19:49:23.509Z,27.88
2023-02-14T19:51:51.468Z,31.05
2023-02-14T19:54:18.823Z,31.42
2023-02-14T19:56:46.727Z,28.52
2023-02-14T19:59:19.750Z,29.02
2023-02-14T20:01:50.539Z,30.98
2023-02-14T20:04:21.619Z,27.85
2023-02-14T20:06:49.123Z,29.60
2023-02-14T20:09:16.522Z,31.42
2023-02-14T20:11:49.967Z,29.48
2023-02-14T20:14:19.462Z,32.50
2023-02-14T20:16:47.271Z,31.02
2023-02-14T20:19:17.159Z,28.02
2023-02-14T20:21:46.105Z,39.03
2023-02-14T20:24:15.962Z,33.40
2023-02-14T20:26:42.758Z,28.52
2023-02-14T20:29:10.857Z,33.63
2023-02-14T20:31:42.928Z,32.70
2023-02-14T20:34:10.463Z,32.67
2023-02-14T20:36:37.396Z,31.05
2023-02-14T20:39:06.286Z,35.30
2023-02-14T20:41:35.045Z,29.63
2023-02-14T20:44:04.879Z,33.38
2023-02-14T20:46:32.062Z,29.50
2023-02-14T20:48:58.722Z,36.95
2023-02-14T20:51:26.399Z,33.17
2023-02-14T20:53:53.789Z,33.10
2023-02-14T20:56:21.559Z,33.15
2023-02-14T20:58:48.253Z,32.17
2023-02-14T21:01:17.840Z,31.50
2023-02-14T21:03:47.540Z,35.28
2023-02-14T21:06:15.073Z,31.30
2023-02-14T21:08:43.101Z,31.73
2023-02-14T21:11:11.600Z,35.25
2023-02-14T21:13:39.257Z,34.17
2023-02-14T21:16:09.303Z,32.85
2023-02-14T21:18:37.715Z,30.60
2023-02-14T21:21:06.674Z,31.40
2023-02-14T21:23:33.459Z,35.67
2023-02-14T21:26:00.069Z,36.30
2023-02-14T21:28:26.690Z,31.35
2023-02-14T21:31:01.789Z,32.60
2023-02-14T21:33:31.341Z,37.00
2023-02-14T21:36:04.859Z,39.30
2023-02-14T21:38:31.430Z,37.35
2023-02-14T21:41:04.917Z,33.38
2023-02-14T21:43:37.483Z,33.03
2023-02-14T21:46:06.331Z,34.17
2023-02-14T21:48:53.179Z,39.22
2023-02-14T21:51:20.442Z,31.88
2023-02-14T21:53:47.534Z,33.38
2023-02-14T21:56:18.070Z,38.58
2023-02-14T21:58:44.775Z,38.53
2023-02-14T22:01:25.151Z,36.33
2023-02-14T22:03:52.183Z,36.70
2023-02-14T22:06:19.225Z,36.92
2023-02-14T22:08:45.988Z,34.60
2023-02-14T22:11:15.326Z,43.25
2023-02-14T22:13:42.446Z,40.55
2023-02-14T22:16:13.080Z,39.97
2023-02-14T22:18:40.209Z,44.38
2023-02-14T22:21:11.482Z,40.53
2023-02-14T22:23:38.808Z,49.08
2023-02-14T22:26:23.373Z,47.28
2023-02-14T22:28:51.193Z,46.55
2023-02-14T22:31:18.688Z,46.50
2023-02-14T22:33:46.553Z,44.58
2023-02-14T22:36:13.217Z,51.22
2023-02-14T22:38:40.049Z,41.33
2023-02-14T22:43:43.244Z,46.40
2023-02-14T22:46:13.557Z,43.50
2023-02-14T22:48:40.834Z,39.17
2023-02-14T22:53:44.233Z,38.15
2023-02-14T22:56:13.627Z,40.40
2023-02-14T22:58:40.489Z,49.30
2023-02-14T23:01:11.997Z,42.65
2023-02-14T23:03:38.560Z,45.50
2023-02-14T23:06:05.172Z,43.78
2023-02-14T23:08:31.740Z,47.28
2023-02-14T23:11:06.447Z,45.35
2023-02-14T23:13:52.905Z,49.10
2023-02-14T23:16:39.372Z,48.25
2023-02-14T23:19:25.864Z,51.03
2023-02-14T23:21:55.678Z,42.85
2023-02-14T23:24:23.332Z,45.20
2023-02-14T23:26:50.488Z,51.13
2023-02-14T23:29:17.417Z,45.05
2023-02-14T23:31:44.184Z,48.72
2023-02-14T23:34:11.520Z,51.17
2023-02-14T23:36:38.329Z,41.55
2023-02-14T23:39:05.521Z,54.05
2023-02-14T23:41:47.686Z,54.08
2023-02-14T23:44:16.504Z,49.08
2023-02-14T23:46:43.441Z,50.25
2023-02-14T23:49:10.927Z,53.28
2023-02-14T23:51:37.492Z,50.50
2023-02-14T23:54:04.348Z,49.20
2023-02-14T23:56:30.973Z,48.72
2023-02-14T23:58:57.583Z,50.97
